createdAt,value
2019-02-22T00:01:13.586Z,29.47
2019-02-22T00:04:01.010Z,29.90
2019-02-22T00:06:48.685Z,28.87
2019-02-22T00:09:36.271Z,30.07
2019-02-22T00:12:24.099Z,29.73
2019-02-22T00:15:11.221Z,29.33
2019-02-22T00:17:58.600Z,29.60
2019-02-22T00:20:47.727Z,29.67
2019-02-22T00:23:35.108Z,29.93
2019-02-22T00:26:22.607Z,29.97
2019-02-22T00:29:10.095Z,30.10
2019-02-22T00:31:57.358Z,29.83
2019-02-22T00:34:45.017Z,30.30
2019-02-22T00:37:33.012Z,30.03
2019-02-22T00:40:20.749Z,29.77
2019-02-22T00:43:08.369Z,28.57
2019-02-22T00:45:55.855Z,29.83
2019-02-22T00:48:43.584Z,30.03
2019-02-22T00:51:30.908Z,27.77
2019-02-22T00:54:18.332Z,29.70
2019-02-22T00:57:05.758Z,28.87
2019-02-22T00:59:53.492Z,28.87
2019-02-22T01:02:40.707Z,28.30
2019-02-22T01:05:28.643Z,29.37
2019-02-22T01:08:15.865Z,28.53
2019-02-22T01:11:03.395Z,29.57
2019-02-22T01:13:50.711Z,27.37
2019-02-22T01:16:38.544Z,27.63
2019-02-22T01:19:26.584Z,28.10
2019-02-22T01:22:14.141Z,27.83
2019-02-22T01:25:01.860Z,27.37
2019-02-22T01:27:49.469Z,28.57
2019-02-22T01:30:36.893Z,27.03
2019-02-22T01:33:24.422Z,26.07
2019-02-22T01:36:11.948Z,27.50
2019-02-22T01:38:59.901Z,26.77
2019-02-22T01:41:47.310Z,26.83
2019-02-22T01:44:34.731Z,26.30
2019-02-22T01:47:21.951Z,26.30
2019-02-22T01:50:09.785Z,24.57
2019-02-22T01:52:57.311Z,25.33
2019-02-22T01:55:44.930Z,25.03
2019-02-22T01:58:32.573Z,24.67
2019-02-22T02:01:19.898Z,25.27
2019-02-22T02:04:07.318Z,24.63
2019-02-22T02:06:55.049Z,25.33
2019-02-22T02:09:42.531Z,24.60
2019-02-22T02:12:30.100Z,24.07
2019-02-22T02:15:17.424Z,23.63
2019-02-22T02:18:05.052Z,24.37
2019-02-22T02:20:52.686Z,23.23
2019-02-22T02:23:40.414Z,23.40
2019-02-22T02:26:27.837Z,22.10
2019-02-22T02:29:15.369Z,21.20
2019-02-22T02:32:02.787Z,19.87
2019-02-22T02:34:50.426Z,18.10
2019-02-22T02:37:37.872Z,17.50
2019-02-22T02:40:25.367Z,16.27
2019-02-22T02:43:12.790Z,16.50
2019-02-22T02:46:00.011Z,15.60
2019-02-22T02:48:47.537Z,16.60
2019-02-22T02:51:35.166Z,15.13
2019-02-22T02:54:22.691Z,15.60
2019-02-22T02:57:09.708Z,15.47
2019-02-22T02:59:57.540Z,15.30
2019-02-22T03:02:45.066Z,14.40
2019-02-22T03:05:34.440Z,14.53
2019-02-22T03:08:23.297Z,13.53
2019-02-22T03:11:20.135Z,13.27
2019-02-22T03:14:00.602Z,13.30
2019-02-22T03:16:47.820Z,13.20
2019-02-22T03:19:35.551Z,13.73
2019-02-22T03:22:22.670Z,13.87
2019-02-22T03:25:10.939Z,12.90
2019-02-22T03:27:58.339Z,13.30
2019-02-22T03:30:46.175Z,13.00
2019-02-22T03:33:33.596Z,12.93
2019-02-22T03:36:20.613Z,12.93
2019-02-22T03:39:08.240Z,12.37
2019-02-22T03:41:55.354Z,12.50
2019-02-22T03:44:42.984Z,11.77
2019-02-22T03:47:30.322Z,11.27
2019-02-22T03:50:19.061Z,11.27
2019-02-22T03:53:11.092Z,10.90
2019-02-22T03:55:58.210Z,11.07
2019-02-22T03:58:46.043Z,10.70
2019-02-22T04:01:33.321Z,10.47
2019-02-22T04:04:20.892Z,10.33
2019-02-22T04:07:08.728Z,10.43
2019-02-22T04:09:56.153Z,9.70
2019-02-22T04:12:43.575Z,10.47
2019-02-22T04:15:31.202Z,10.10
2019-02-22T04:18:18.632Z,10.03
2019-02-22T04:21:05.980Z,9.17
2019-02-22T04:23:53.578Z,9.67
2019-02-22T04:26:41.511Z,9.00
2019-02-22T04:29:29.346Z,9.70
2019-02-22T04:32:16.977Z,8.57
2019-02-22T04:35:04.821Z,9.23
2019-02-22T04:37:52.440Z,9.30
2019-02-22T04:40:40.067Z,9.23
2019-02-22T04:43:27.394Z,9.23
2019-02-22T04:46:14.813Z,9.23
2019-02-22T04:49:02.449Z,9.00
2019-02-22T04:51:49.662Z,9.30
2019-02-22T04:54:37.394Z,9.30
2019-02-22T04:57:25.027Z,9.30
2019-02-22T05:00:12.723Z,9.50
2019-02-22T05:03:00.079Z,9.60
2019-02-22T05:05:47.706Z,9.07
2019-02-22T05:08:35.229Z,9.07
2019-02-22T05:11:22.653Z,9.60
2019-02-22T05:14:10.084Z,10.20
2019-02-22T05:16:57.920Z,9.83
2019-02-22T05:19:44.931Z,9.50
2019-02-22T05:22:32.566Z,9.27
2019-02-22T05:25:20.186Z,10.07
2019-02-22T05:28:07.815Z,10.27
2019-02-22T05:30:55.343Z,10.10
2019-02-22T05:33:42.871Z,9.80
2019-02-22T05:36:30.398Z,9.97
2019-02-22T05:39:19.602Z,10.30
2019-02-22T05:42:07.202Z,10.20
2019-02-22T05:44:54.509Z,11.00
2019-02-22T05:47:41.936Z,11.07
2019-02-22T05:50:29.570Z,11.97
2019-02-22T05:53:16.955Z,10.67
2019-02-22T05:56:04.308Z,9.90
2019-02-22T05:58:51.941Z,10.20
2019-02-22T06:01:39.261Z,11.00
2019-02-22T06:04:26.382Z,10.97
2019-02-22T06:07:14.685Z,11.03
2019-02-22T06:10:02.256Z,11.20
2019-02-22T06:12:49.472Z,11.03
2019-02-22T06:15:36.895Z,11.07
2019-02-22T06:18:24.425Z,10.27
2019-02-22T06:21:12.050Z,11.27
2019-02-22T06:23:59.067Z,11.60
2019-02-22T06:26:46.490Z,10.90
2019-02-22T06:29:33.811Z,11.10
2019-02-22T06:32:21.445Z,11.70
2019-02-22T06:35:09.219Z,11.60
2019-02-22T06:37:56.904Z,12.50
2019-02-22T06:40:47.723Z,11.97
2019-02-22T06:43:33.493Z,11.43
2019-02-22T06:46:21.270Z,11.73
2019-02-22T06:49:08.853Z,11.37
2019-02-22T06:51:56.378Z,11.77
2019-02-22T06:54:44.008Z,11.90
2019-02-22T06:57:31.841Z,12.17
2019-02-22T07:00:19.470Z,12.03
2019-02-22T07:03:07.103Z,12.17
2019-02-22T07:05:54.932Z,13.57
2019-02-22T07:08:42.357Z,13.20
2019-02-22T07:11:31.731Z,12.80
2019-02-22T07:14:19.052Z,13.63
2019-02-22T07:17:06.503Z,15.10
2019-02-22T07:19:53.619Z,13.97
2019-02-22T07:22:41.015Z,14.47
2019-02-22T07:25:28.442Z,13.30
2019-02-22T07:28:16.089Z,13.80
2019-02-22T07:31:03.597Z,13.93
2019-02-22T07:33:50.710Z,13.57
2019-02-22T07:36:38.339Z,13.50
2019-02-22T07:39:28.120Z,14.63
2019-02-22T07:42:15.235Z,14.40
2019-02-22T07:45:02.973Z,14.17
2019-02-22T07:47:50.493Z,14.17
2019-02-22T07:50:37.609Z,13.90
2019-02-22T07:53:25.240Z,14.60
2019-02-22T07:56:12.568Z,14.60
2019-02-22T07:59:02.899Z,15.13
2019-02-22T08:01:49.049Z,14.97
2019-02-22T08:04:36.575Z,14.00
2019-02-22T08:07:24.204Z,14.93
2019-02-22T08:10:11.423Z,14.83
2019-02-22T08:12:58.950Z,14.87
2019-02-22T08:15:46.477Z,14.67
2019-02-22T08:18:34.207Z,14.57
2019-02-22T08:21:21.844Z,14.23
2019-02-22T08:24:09.569Z,14.13
2019-02-22T08:26:56.889Z,13.30
2019-02-22T08:29:44.522Z,14.63
2019-02-22T08:32:32.240Z,13.33
2019-02-22T08:35:19.578Z,12.30
2019-02-22T08:38:07.304Z,13.13
2019-02-22T08:40:54.423Z,13.47
2019-02-22T08:43:42.050Z,13.10
2019-02-22T08:46:29.175Z,13.80
2019-02-22T08:49:16.900Z,12.70
2019-02-22T08:52:04.425Z,12.13
2019-02-22T08:54:52.674Z,12.63
2019-02-22T08:57:39.891Z,13.00
2019-02-22T09:00:27.517Z,12.10
2019-02-22T09:03:14.944Z,12.70
2019-02-22T09:06:02.162Z,10.30
2019-02-22T09:08:49.788Z,9.40
2019-02-22T09:11:36.906Z,8.97
2019-02-22T09:14:24.744Z,9.50
2019-02-22T09:17:12.279Z,9.73
2019-02-22T09:19:59.589Z,9.43
2019-02-22T09:22:47.627Z,9.20
2019-02-22T09:25:35.049Z,8.57
2019-02-22T09:28:22.582Z,8.83
2019-02-22T09:31:09.694Z,9.80
2019-02-22T09:33:57.221Z,9.77
2019-02-22T09:36:44.338Z,9.30
2019-02-22T09:39:32.176Z,8.37
2019-02-22T09:42:19.390Z,7.87
2019-02-22T09:45:12.066Z,8.93
2019-02-22T09:48:00.075Z,11.03
2019-02-22T09:50:47.501Z,11.10
2019-02-22T09:53:34.927Z,10.97
2019-02-22T09:56:22.348Z,11.37
2019-02-22T09:59:09.776Z,10.77
2019-02-22T10:01:56.894Z,10.97
2019-02-22T10:04:54.631Z,10.53
2019-02-22T10:07:33.581Z,10.87
2019-02-22T10:10:20.903Z,10.77
2019-02-22T10:13:08.531Z,10.77
2019-02-22T10:15:55.965Z,10.70
2019-02-22T10:18:43.484Z,12.30
2019-02-22T10:21:31.215Z,10.07
2019-02-22T10:24:18.535Z,8.93
2019-02-22T10:27:06.180Z,8.50
2019-02-22T10:29:53.493Z,8.47
2019-02-22T10:32:40.919Z,8.73
2019-02-22T10:35:28.439Z,9.73
2019-02-22T10:38:16.377Z,9.30
2019-02-22T10:41:03.796Z,8.80
2019-02-22T10:43:51.325Z,8.63
2019-02-22T10:46:38.851Z,7.40
2019-02-22T10:49:26.380Z,6.90
2019-02-22T10:52:13.903Z,6.27
2019-02-22T10:55:01.437Z,5.77
2019-02-22T10:57:49.620Z,6.13
2019-02-22T11:00:37.301Z,6.10
2019-02-22T11:03:24.935Z,6.80
2019-02-22T11:06:12.378Z,7.53
2019-02-22T11:08:59.895Z,6.70
2019-02-22T11:11:47.311Z,8.03
2019-02-22T11:14:36.061Z,6.87
2019-02-22T11:17:23.587Z,6.10
2019-02-22T11:20:12.244Z,5.57
2019-02-22T11:22:59.750Z,4.37
2019-02-22T11:25:47.298Z,4.00
2019-02-22T11:28:34.804Z,4.10
2019-02-22T11:31:22.142Z,3.77
2019-02-22T11:34:09.875Z,3.77
2019-02-22T11:36:57.604Z,4.57
2019-02-22T11:39:45.130Z,5.13
2019-02-22T11:42:32.455Z,4.60
2019-02-22T11:45:20.088Z,5.00
2019-02-22T11:48:09.431Z,4.77
2019-02-22T11:50:56.468Z,5.50
2019-02-22T11:53:43.788Z,6.10
2019-02-22T11:56:31.210Z,5.10
2019-02-22T11:59:18.843Z,5.63
2019-02-22T12:02:06.887Z,5.30
2019-02-22T12:04:54.306Z,5.00
2019-02-22T12:07:42.956Z,5.37
2019-02-22T12:10:30.279Z,5.10
2019-02-22T12:13:17.500Z,5.33
2019-02-22T12:16:05.132Z,4.97
2019-02-22T12:18:52.347Z,5.43
2019-02-22T12:21:40.287Z,6.77
2019-02-22T12:24:27.603Z,6.47
2019-02-22T12:27:15.136Z,5.40
2019-02-22T12:30:02.967Z,5.67
2019-02-22T12:32:50.289Z,6.83
2019-02-22T12:35:38.019Z,5.90
2019-02-22T12:38:25.036Z,4.97
2019-02-22T12:41:12.767Z,4.53
2019-02-22T12:44:00.498Z,4.13
2019-02-22T12:46:47.929Z,4.40
2019-02-22T12:49:35.242Z,3.40
2019-02-22T12:52:22.870Z,3.67
2019-02-22T12:55:10.877Z,3.93
2019-02-22T12:57:58.234Z,4.87
2019-02-22T13:00:45.554Z,4.93
2019-02-22T13:03:33.077Z,5.60
2019-02-22T13:06:20.210Z,6.07
2019-02-22T13:09:08.045Z,6.33
2019-02-22T13:11:55.356Z,7.10
2019-02-22T13:14:42.855Z,7.60
2019-02-22T13:17:31.266Z,6.80
2019-02-22T13:20:18.856Z,6.47
2019-02-22T13:23:06.790Z,6.07
2019-02-22T13:25:53.803Z,6.13
2019-02-22T13:28:41.329Z,6.23
2019-02-22T13:31:30.386Z,5.13
2019-02-22T13:34:17.633Z,5.20
2019-02-22T13:37:05.241Z,5.23
2019-02-22T13:39:52.260Z,5.30
2019-02-22T13:42:39.885Z,6.10
2019-02-22T13:45:27.404Z,6.87
2019-02-22T13:48:15.144Z,7.63
2019-02-22T13:51:02.668Z,8.50
2019-02-22T13:53:50.300Z,8.00
2019-02-22T13:56:38.035Z,8.07
2019-02-22T13:59:25.458Z,8.20
2019-02-22T14:02:13.196Z,7.77
2019-02-22T14:05:00.814Z,7.43
2019-02-22T14:07:55.648Z,7.53
2019-02-22T14:10:42.739Z,7.70
2019-02-22T14:13:30.153Z,7.87
2019-02-22T14:16:17.578Z,7.80
2019-02-22T14:19:05.103Z,8.70
2019-02-22T14:21:52.529Z,9.03
2019-02-22T14:24:41.591Z,9.90
2019-02-22T14:27:29.325Z,10.27
2019-02-22T14:30:20.086Z,10.73
2019-02-22T14:33:07.860Z,11.20
2019-02-22T14:35:55.281Z,11.23
2019-02-22T14:38:42.607Z,11.27
2019-02-22T14:41:30.396Z,12.73
2019-02-22T14:44:17.656Z,12.80
2019-02-22T14:47:04.776Z,12.97
2019-02-22T14:49:52.198Z,13.47
2019-02-22T14:52:39.826Z,14.27
2019-02-22T14:55:27.373Z,14.20
2019-02-22T14:58:14.881Z,13.13
2019-02-22T15:01:02.311Z,12.30
2019-02-22T15:03:50.139Z,11.53
2019-02-22T15:06:40.142Z,12.87
2019-02-22T15:09:27.139Z,11.17
2019-02-22T15:12:14.934Z,11.37
2019-02-22T15:15:02.298Z,11.87
2019-02-22T15:17:54.224Z,11.53
2019-02-22T15:20:41.758Z,11.97
2019-02-22T15:23:28.968Z,11.37
2019-02-22T15:26:16.804Z,10.67
2019-02-22T15:29:04.026Z,11.80
2019-02-22T15:31:51.445Z,11.77
2019-02-22T15:34:38.668Z,12.13
2019-02-22T15:37:25.960Z,12.47
2019-02-22T15:40:14.544Z,11.80
2019-02-22T15:43:02.068Z,11.60
2019-02-22T15:45:50.206Z,11.73
2019-02-22T15:48:37.834Z,10.67
2019-02-22T15:51:25.667Z,12.20
2019-02-22T15:54:13.401Z,12.73
2019-02-22T15:57:01.335Z,13.33
2019-02-22T15:59:48.659Z,13.30
2019-02-22T16:02:36.081Z,14.70
2019-02-22T16:05:25.153Z,13.57
2019-02-22T16:08:13.290Z,13.00
2019-02-22T16:11:00.580Z,13.30
2019-02-22T16:13:48.035Z,13.60
2019-02-22T16:16:35.462Z,13.63
2019-02-22T16:19:23.502Z,13.13
2019-02-22T16:22:10.917Z,13.30
2019-02-22T16:24:58.756Z,13.20
2019-02-22T16:27:46.382Z,13.17
2019-02-22T16:30:35.345Z,13.00
2019-02-22T16:33:22.539Z,13.40
2019-02-22T16:36:09.985Z,12.93
2019-02-22T16:38:57.104Z,13.53
2019-02-22T16:41:44.422Z,13.23
2019-02-22T16:44:31.847Z,13.37
2019-02-22T16:47:19.377Z,13.53
2019-02-22T16:50:12.356Z,14.30
2019-02-22T16:52:59.446Z,14.53
2019-02-22T16:55:46.977Z,14.57
2019-02-22T16:58:34.294Z,15.00
2019-02-22T17:01:21.926Z,14.17
2019-02-22T17:04:09.153Z,14.20
2019-02-22T17:06:56.773Z,14.77
2019-02-22T17:09:44.303Z,15.10
2019-02-22T17:12:31.929Z,15.87
2019-02-22T17:15:19.350Z,16.43
2019-02-22T17:18:07.287Z,16.00
2019-02-22T17:20:55.120Z,17.10
2019-02-22T17:23:42.443Z,15.77
2019-02-22T17:26:29.928Z,16.87
2019-02-22T17:29:17.189Z,16.47
2019-02-22T17:32:04.813Z,16.97
2019-02-22T17:34:52.245Z,16.00
2019-02-22T17:37:39.669Z,15.90
2019-02-22T17:40:30.194Z,17.10
2019-02-22T17:43:17.687Z,16.33
2019-02-22T17:46:05.112Z,16.47
2019-02-22T17:48:52.435Z,16.47
2019-02-22T17:51:39.870Z,15.80
2019-02-22T17:54:27.384Z,16.20
2019-02-22T17:57:14.607Z,16.57
2019-02-22T18:00:01.729Z,15.47
2019-02-22T18:02:49.148Z,15.13
2019-02-22T18:05:36.776Z,15.90
2019-02-22T18:08:23.992Z,15.27
2019-02-22T18:11:11.519Z,15.77
2019-02-22T18:13:59.355Z,16.10
2019-02-22T18:16:46.579Z,15.50
2019-02-22T18:19:33.895Z,15.93
2019-02-22T18:22:25.894Z,15.77
2019-02-22T18:25:11.404Z,16.00
2019-02-22T18:27:58.727Z,16.17
2019-02-22T18:30:46.151Z,15.33
2019-02-22T18:33:33.987Z,15.73
2019-02-22T18:36:21.925Z,15.80
2019-02-22T18:39:09.653Z,15.60
2019-02-22T18:41:57.077Z,13.93
2019-02-22T18:44:44.608Z,14.83
2019-02-22T18:47:32.333Z,14.27
2019-02-22T18:50:19.451Z,13.83
2019-02-22T18:53:06.904Z,13.17
2019-02-22T18:55:54.299Z,14.37
2019-02-22T18:58:41.820Z,13.87
2019-02-22T19:01:29.217Z,14.27
2019-02-22T19:04:16.878Z,13.13
2019-02-22T19:07:04.832Z,13.30
2019-02-22T19:09:52.097Z,13.10
2019-02-22T19:12:39.563Z,13.30
2019-02-22T19:15:27.191Z,13.47
2019-02-22T19:18:15.034Z,16.27
2019-02-22T19:21:02.654Z,17.87
2019-02-22T19:24:00.304Z,15.80
2019-02-22T19:26:47.434Z,15.23
2019-02-22T19:29:34.859Z,16.70
2019-02-22T19:32:26.277Z,16.97
2019-02-22T19:35:14.213Z,16.00
2019-02-22T19:38:01.943Z,16.33
2019-02-22T19:40:49.472Z,16.83
2019-02-22T19:43:36.895Z,18.27
2019-02-22T19:46:24.642Z,19.10
2019-02-22T19:49:11.849Z,20.90
2019-02-22T19:51:59.475Z,22.07
2019-02-22T19:54:46.796Z,22.17
2019-02-22T19:57:34.224Z,23.10
2019-02-22T20:00:21.439Z,20.87
2019-02-22T20:03:08.777Z,19.70
2019-02-22T20:05:57.006Z,19.40
2019-02-22T20:08:44.532Z,20.00
2019-02-22T20:11:32.056Z,19.70
2019-02-22T20:14:20.606Z,18.27
2019-02-22T20:17:08.854Z,19.57
2019-02-22T20:19:56.584Z,19.20
2019-02-22T20:22:43.982Z,19.43
2019-02-22T20:25:32.047Z,19.17
2019-02-22T20:28:19.876Z,19.17
2019-02-22T20:31:07.509Z,19.33
2019-02-22T20:33:54.729Z,20.53
2019-02-22T20:36:44.128Z,21.10
2019-02-22T20:39:31.827Z,21.63
2019-02-22T20:42:19.252Z,21.67
2019-02-22T20:45:10.569Z,24.20
2019-02-22T20:48:05.223Z,23.87
2019-02-22T20:50:47.176Z,23.10
2019-02-22T20:53:34.478Z,23.97
2019-02-22T20:56:21.912Z,24.20
2019-02-22T20:59:09.020Z,23.80
2019-02-22T21:01:56.549Z,22.90
2019-02-22T21:04:44.276Z,23.37
2019-02-22T21:07:32.114Z,23.70
2019-02-22T21:10:20.715Z,21.63
2019-02-22T21:13:08.496Z,21.97
2019-02-22T21:15:56.328Z,21.53
2019-02-22T21:18:46.212Z,21.77
2019-02-22T21:21:33.428Z,22.10
2019-02-22T21:24:21.368Z,21.30
2019-02-22T21:27:08.789Z,20.57
2019-02-22T21:29:56.213Z,20.37
2019-02-22T21:32:43.705Z,19.27
2019-02-22T21:35:30.965Z,17.33
2019-02-22T21:38:18.519Z,17.77
2019-02-22T21:41:05.813Z,18.80
2019-02-22T21:43:54.877Z,19.10
2019-02-22T21:46:42.501Z,17.40
2019-02-22T21:49:29.723Z,16.90
2019-02-22T21:52:18.782Z,18.20
2019-02-22T21:55:08.699Z,17.93
2019-02-22T21:57:55.885Z,18.60
2019-02-22T22:00:43.520Z,18.43
2019-02-22T22:03:30.964Z,19.37
2019-02-22T22:06:18.564Z,19.53
2019-02-22T22:09:06.405Z,19.83
2019-02-22T22:11:53.832Z,15.93
2019-02-22T22:14:42.271Z,15.10
2019-02-22T22:17:29.613Z,15.50
2019-02-22T22:20:17.433Z,15.20
2019-02-22T22:23:05.167Z,14.77
2019-02-22T22:25:53.000Z,15.90
2019-02-22T22:28:40.676Z,16.97
2019-02-22T22:31:27.952Z,15.90
2019-02-22T22:34:16.903Z,16.73
2019-02-22T22:37:06.243Z,16.53
2019-02-22T22:39:53.598Z,16.63
2019-02-22T22:42:41.035Z,16.17
2019-02-22T22:45:28.500Z,16.83
2019-02-22T22:48:16.383Z,16.20
2019-02-22T22:51:03.917Z,15.80
2019-02-22T22:53:51.430Z,16.90
2019-02-22T22:56:39.073Z,16.80
2019-02-22T22:59:26.721Z,16.40
2019-02-22T23:02:14.113Z,16.73
2019-02-22T23:05:01.335Z,16.87
2019-02-22T23:07:49.169Z,17.37
2019-02-22T23:10:36.693Z,17.67
2019-02-22T23:13:24.629Z,17.27
2019-02-22T23:16:12.062Z,18.27
2019-02-22T23:19:02.125Z,18.27
2019-02-22T23:21:49.399Z,17.97
2019-02-22T23:24:37.214Z,18.97
2019-02-22T23:27:24.721Z,19.50
2019-02-22T23:30:12.357Z,20.30
2019-02-22T23:32:59.882Z,19.77
2019-02-22T23:35:47.627Z,19.63
2019-02-22T23:38:35.675Z,20.83
2019-02-22T23:41:23.170Z,21.13
2019-02-22T23:44:11.006Z,22.30
2019-02-22T23:46:58.240Z,22.67
2019-02-22T23:49:45.752Z,23.23
2019-02-22T23:52:33.993Z,22.00
2019-02-22T23:55:21.648Z,23.03
2019-02-22T23:58:09.147Z,23.87
